createdAt,value
2019-02-23T00:00:25.028Z,101226.02
2019-02-23T00:05:30.237Z,101226.44
2019-02-23T00:10:35.545Z,101220.67
2019-02-23T00:15:40.935Z,101208.65
2019-02-23T00:20:46.187Z,101209.47
2019-02-23T00:25:51.417Z,101204.51
2019-02-23T00:30:56.642Z,101201.74
2019-02-23T00:36:01.827Z,101205.69
2019-02-23T00:41:07.058Z,101207.83
2019-02-23T00:46:12.291Z,101200.31
2019-02-23T00:51:17.548Z,101204.84
2019-02-23T00:56:23.562Z,101196.88
2019-02-23T01:01:28.736Z,101205.36
2019-02-23T01:06:33.992Z,101206.30
2019-02-23T01:11:39.386Z,101200.94
2019-02-23T01:16:44.643Z,101200.02
2019-02-23T01:21:50.004Z,101203.95
2019-02-23T01:26:55.177Z,101195.52
2019-02-23T01:32:00.407Z,101195.91
2019-02-23T01:42:23.073Z,101194.41
2019-02-23T01:47:28.348Z,101195.31
2019-02-23T01:52:33.602Z,101182.49
2019-02-23T01:57:38.898Z,101186.39
2019-02-23T02:02:45.581Z,101176.11
2019-02-23T02:07:51.017Z,101168.97
2019-02-23T02:12:56.228Z,101164.05
2019-02-23T02:18:01.473Z,101169.64
2019-02-23T02:23:06.921Z,101152.64
2019-02-23T02:28:12.164Z,101154.30
2019-02-23T02:33:17.413Z,101157.34
2019-02-23T02:38:22.633Z,101156.41
2019-02-23T02:43:27.878Z,101162.17
2019-02-23T02:48:33.123Z,101156.34
2019-02-23T02:53:38.410Z,101161.64
2019-02-23T02:58:43.821Z,101150.00
2019-02-23T03:03:49.194Z,101152.67
2019-02-23T03:08:54.503Z,101153.97
2019-02-23T03:13:59.725Z,101143.77
2019-02-23T03:19:05.148Z,101160.67
2019-02-23T03:24:10.359Z,101158.95
2019-02-23T03:29:15.589Z,101171.34
2019-02-23T03:34:20.898Z,101175.78
2019-02-23T03:39:26.152Z,101173.51
2019-02-23T03:44:31.399Z,101167.30
2019-02-23T03:49:36.669Z,101167.34
2019-02-23T03:54:42.049Z,101165.19
2019-02-23T03:59:47.449Z,101180.32
2019-02-23T04:04:52.766Z,101185.20
2019-02-23T04:09:58.067Z,101190.94
2019-02-23T04:15:03.329Z,101189.63
2019-02-23T04:20:08.728Z,101181.72
2019-02-23T04:25:14.090Z,101187.99
2019-02-23T04:30:19.337Z,101197.73
2019-02-23T04:35:24.674Z,101200.41
2019-02-23T04:40:29.937Z,101192.42
2019-02-23T04:45:35.148Z,101199.52
2019-02-23T04:50:40.573Z,101197.32
2019-02-23T04:55:45.863Z,101196.05
2019-02-23T05:00:51.157Z,101203.63
2019-02-23T05:05:56.269Z,101203.27
2019-02-23T05:11:01.565Z,101197.17
2019-02-23T05:16:06.801Z,101199.89
2019-02-23T05:21:12.129Z,101195.09
2019-02-23T05:26:17.464Z,101193.37
2019-02-23T05:31:22.805Z,101198.77
2019-02-23T05:36:28.168Z,101197.89
2019-02-23T05:41:33.308Z,101196.94
2019-02-23T05:46:38.635Z,101193.85
2019-02-23T05:51:43.992Z,101191.23
2019-02-23T05:56:49.306Z,101173.97
2019-02-23T06:01:54.654Z,101178.39
2019-02-23T06:07:00.001Z,101170.41
2019-02-23T06:12:05.338Z,101169.48
2019-02-23T06:17:10.614Z,101169.05
2019-02-23T06:22:15.972Z,101178.27
2019-02-23T06:27:21.353Z,101177.76
2019-02-23T06:32:26.656Z,101176.43
2019-02-23T06:37:32.029Z,101176.92
2019-02-23T06:42:37.462Z,101167.94
2019-02-23T06:47:42.694Z,101171.87
2019-02-23T06:52:47.854Z,101167.38
2019-02-23T06:57:53.116Z,101173.20
2019-02-23T07:02:58.331Z,101165.20
2019-02-23T07:08:03.598Z,101176.16
2019-02-23T07:13:08.978Z,101178.34
2019-02-23T07:18:14.227Z,101186.69
2019-02-23T07:23:19.487Z,101190.53
2019-02-23T07:28:24.761Z,101188.27
2019-02-23T07:33:33.160Z,101188.19
2019-02-23T07:38:36.901Z,101198.28
2019-02-23T07:43:42.162Z,101192.92
2019-02-23T07:48:47.402Z,101198.99
2019-02-23T07:53:52.687Z,101194.39
2019-02-23T07:58:58.073Z,101193.84
2019-02-23T08:04:03.256Z,101188.93
2019-02-23T08:09:10.217Z,101204.72
2019-02-23T08:14:15.529Z,101212.02
2019-02-23T08:19:20.922Z,101222.12
2019-02-23T08:24:26.188Z,101222.88
2019-02-23T08:29:31.517Z,101227.64
2019-02-23T08:34:36.783Z,101234.51
2019-02-23T08:39:42.096Z,101239.88
2019-02-23T08:44:47.482Z,101244.17
2019-02-23T08:49:52.818Z,101258.84
2019-02-23T08:54:58.209Z,101261.16
2019-02-23T09:00:03.862Z,101269.11
2019-02-23T09:05:10.441Z,101257.42
2019-02-23T09:10:16.133Z,101260.65
2019-02-23T09:15:22.380Z,101251.03
2019-02-23T09:20:29.371Z,101269.69
2019-02-23T09:25:34.836Z,101269.20
2019-02-23T09:30:39.979Z,101262.88
2019-02-23T09:35:46.405Z,101261.66
2019-02-23T09:40:51.669Z,101271.57
2019-02-23T09:45:56.999Z,101244.52
2019-02-23T09:51:02.453Z,101247.94
2019-02-23T09:56:07.677Z,101255.14
2019-02-23T10:01:13.227Z,101266.34
2019-02-23T10:06:18.734Z,101261.84
2019-02-23T10:11:24.694Z,101280.67
2019-02-23T10:16:29.962Z,101299.86
2019-02-23T10:21:35.253Z,101299.86
2019-02-23T10:26:40.497Z,101313.14
2019-02-23T10:31:45.727Z,101316.23
2019-02-23T10:36:51.083Z,101325.39
2019-02-23T10:41:58.638Z,101323.36
2019-02-23T10:47:03.951Z,101321.20
2019-02-23T10:52:09.517Z,101325.67
2019-02-23T10:57:15.251Z,101326.02
2019-02-23T11:02:20.845Z,101322.61
2019-02-23T11:07:28.856Z,101316.77
2019-02-23T11:12:34.163Z,101318.77
2019-02-23T11:17:39.413Z,101323.38
2019-02-23T11:22:45.021Z,101322.75
2019-02-23T11:27:50.567Z,101326.81
2019-02-23T11:32:55.782Z,101323.80
2019-02-23T11:38:00.964Z,101333.14
2019-02-23T11:43:06.232Z,101332.91
2019-02-23T11:48:11.457Z,101340.38
2019-02-23T11:53:16.785Z,101348.40
2019-02-23T11:58:22.122Z,101332.98
2019-02-23T12:03:27.406Z,101352.47
2019-02-23T12:08:32.769Z,101366.06
2019-02-23T12:13:40.457Z,101352.34
2019-02-23T12:18:45.679Z,101358.05
2019-02-23T12:23:50.918Z,101371.00
2019-02-23T12:28:56.267Z,101361.89
2019-02-23T12:34:01.511Z,101362.91
2019-02-23T12:39:07.370Z,101362.97
2019-02-23T12:44:12.572Z,101349.70
2019-02-23T12:49:17.884Z,101353.21
2019-02-23T12:54:23.113Z,101354.45
2019-02-23T12:59:28.349Z,101356.23
2019-02-23T13:04:36.353Z,101345.61
2019-02-23T13:09:46.617Z,101334.45
2019-02-23T13:14:59.757Z,101328.34
2019-02-23T13:20:22.017Z,101335.56
2019-02-23T13:37:47.177Z,101355.37
2019-02-23T13:43:15.002Z,101370.41
2019-02-23T13:48:38.794Z,101384.77
2019-02-23T13:54:11.267Z,101384.01
2019-02-23T13:59:33.261Z,101389.80
2019-02-23T14:05:04.185Z,101394.16
2019-02-23T14:10:34.901Z,101396.05
2019-02-23T14:15:52.781Z,101396.70
2019-02-23T14:21:25.137Z,101404.86
2019-02-23T14:26:51.404Z,101405.32
2019-02-23T14:32:10.161Z,101398.19
2019-02-23T14:37:32.361Z,101400.82
2019-02-23T14:42:51.633Z,101415.58
2019-02-23T14:48:18.972Z,101407.75
2019-02-23T14:53:34.232Z,101412.78
2019-02-23T14:58:57.354Z,101416.40
2019-02-23T15:04:14.841Z,101440.66
2019-02-23T15:09:36.342Z,101459.89
2019-02-23T15:15:02.310Z,101462.94
2019-02-23T15:20:20.614Z,101459.59
2019-02-23T15:25:43.317Z,101454.29
2019-02-23T15:31:06.258Z,101443.25
2019-02-23T15:36:28.172Z,101434.86
2019-02-23T15:41:57.717Z,101408.69
2019-02-23T15:47:20.212Z,101409.12
2019-02-23T15:52:26.754Z,101403.56
2019-02-23T15:57:32.153Z,101400.13
2019-02-23T16:02:37.982Z,101420.63
2019-02-23T16:07:43.448Z,101416.73
2019-02-23T16:12:48.724Z,101432.02
2019-02-23T16:17:53.966Z,101441.47
2019-02-23T16:22:59.322Z,101448.60
2019-02-23T16:28:04.798Z,101456.89
2019-02-23T16:33:10.202Z,101465.20
2019-02-23T16:38:15.672Z,101454.55
2019-02-23T16:43:21.067Z,101457.66
2019-02-23T16:48:26.482Z,101463.80
2019-02-23T16:53:31.774Z,101459.77
2019-02-23T16:58:37.225Z,101479.90
2019-02-23T17:03:42.571Z,101492.07
2019-02-23T17:08:47.981Z,101500.53
2019-02-23T17:13:53.302Z,101503.67
2019-02-23T17:24:16.092Z,101508.01
2019-02-23T17:29:22.197Z,101500.88
2019-02-23T17:34:27.614Z,101509.95
2019-02-23T17:39:33.017Z,101520.53
2019-02-23T17:44:38.812Z,101522.77
2019-02-23T17:49:44.258Z,101532.97
2019-02-23T17:54:49.671Z,101545.16
2019-02-23T17:59:55.031Z,101539.30
2019-02-23T18:05:00.539Z,101550.72
2019-02-23T18:10:06.032Z,101553.73
2019-02-23T18:15:11.473Z,101560.06
2019-02-23T18:20:16.935Z,101541.89
2019-02-23T18:25:22.261Z,101553.27
2019-02-23T18:30:27.689Z,101557.98
2019-02-23T18:35:33.174Z,101567.50
2019-02-23T18:40:38.498Z,101568.48
2019-02-23T18:45:47.464Z,101568.53
2019-02-23T18:50:51.082Z,101569.52
2019-02-23T18:55:56.347Z,101575.98
2019-02-23T19:01:01.547Z,101578.53
2019-02-23T19:06:06.826Z,101582.33
2019-02-23T19:11:12.136Z,101587.96
2019-02-23T19:16:17.524Z,101585.08
2019-02-23T19:21:22.869Z,101576.12
2019-02-23T19:26:28.268Z,101584.05
2019-02-23T19:31:33.569Z,101575.61
2019-02-23T19:36:38.917Z,101586.70
2019-02-23T19:41:44.207Z,101605.49
2019-02-23T19:46:53.873Z,101599.78
2019-02-23T19:51:59.142Z,101600.58
2019-02-23T19:57:04.397Z,101616.20
2019-02-23T20:02:09.718Z,101608.47
2019-02-23T20:07:15.124Z,101602.72
2019-02-23T20:12:20.407Z,101593.92
2019-02-23T20:17:26.984Z,101607.90
2019-02-23T20:22:32.263Z,101614.97
2019-02-23T20:27:37.533Z,101621.07
2019-02-23T20:32:42.927Z,101624.04
2019-02-23T20:37:48.172Z,101617.87
2019-02-23T20:42:53.408Z,101625.55
2019-02-23T20:47:58.778Z,101624.86
2019-02-23T20:53:09.028Z,101626.09
2019-02-23T20:58:14.240Z,101635.33
2019-02-23T21:03:19.573Z,101639.94
2019-02-23T21:08:25.882Z,101641.97
2019-02-23T21:13:32.627Z,101643.87
2019-02-23T21:18:38.125Z,101637.84
2019-02-23T21:23:43.352Z,101640.58
2019-02-23T21:28:48.669Z,101635.92
2019-02-23T21:33:54.012Z,101636.28
2019-02-23T21:38:59.294Z,101643.40
2019-02-23T21:44:05.407Z,101647.27
2019-02-23T21:49:10.714Z,101652.98
2019-02-23T21:54:16.139Z,101660.47
2019-02-23T21:59:21.456Z,101639.86
2019-02-23T22:04:27.006Z,101644.09
2019-02-23T22:09:32.295Z,101642.35
2019-02-23T22:14:38.531Z,101647.06
2019-02-23T22:19:45.208Z,101640.73
2019-02-23T22:24:50.523Z,101631.17
2019-02-23T22:29:55.849Z,101636.63
2019-02-23T22:35:01.094Z,101628.81
2019-02-23T22:40:06.574Z,101625.52
2019-02-23T22:45:11.799Z,101644.73
2019-02-23T22:50:17.033Z,101644.02
2019-02-23T22:55:23.786Z,101637.75
2019-02-23T23:00:37.005Z,101622.70
2019-02-23T23:05:42.228Z,101616.20
2019-02-23T23:10:47.413Z,101602.90
2019-02-23T23:15:52.812Z,101593.28
2019-02-23T23:20:58.097Z,101598.95
2019-02-23T23:26:03.403Z,101591.56
2019-02-23T23:31:08.828Z,101578.09
2019-02-23T23:36:14.114Z,101587.73
2019-02-23T23:41:19.435Z,101589.13
2019-02-23T23:46:25.800Z,101578.83
2019-02-23T23:51:31.045Z,101568.09
2019-02-23T23:56:36.310Z,101561.86
